Time;durP1;ratioP1;P1;durP2;ratioP2;P2;SDS_P1;SDS_P2;PMS_P1;PMS_P2;Temp;Humidity;BMP_temperature;BMP_pressure;BME280_temperature;BME280_humidity;BME280_pressure;Samples;Min_cycle;Max_cycle;Signal;HPM_P1;HPM_P2
2023/03/29 00:01:35;;;;;;;;;;;;;;;10.58;73.40;100399.22;5070000;28;19916;-57
2023/03/29 00:04:01;;;;;;;;;;;;;;;10.52;73.67;100402.06;5069637;28;19932;-57
2023/03/29 00:06:31;;;;;;;;;;;;;;;10.52;73.88;100399.41;5050090;28;20276;-57
2023/03/29 00:08:57;;;;;;;;;;;;;;;10.54;74.65;100396.69;5052587;28;20019;-57
2023/03/29 00:11:22;;;;;;;;;;;;;;;10.58;74.50;100399.22;5050821;28;20010;-57
2023/03/29 00:13:48;;;;;;;;;;;;;;;10.60;74.99;100408.03;5058705;28;20017;-57
2023/03/29 00:16:13;;;;;;;;;;;;;;;10.59;75.08;100406.28;5069905;28;20476;-57
2023/03/29 00:18:39;;;;;;;;;;;;;;;10.59;74.49;100416.91;5069952;28;20360;-57
2023/03/29 00:21:04;;;;;;;;;;;;;;;10.57;75.53;100408.13;5069984;28;20337;-57
2023/03/29 00:23:30;;;;;;;;;;;;;;;10.57;75.98;100417.88;5066453;28;19921;-57
2023/03/29 00:25:55;;;;;;;;;;;;;;;10.55;76.21;100420.59;5070079;28;19916;-57
2023/03/29 00:28:20;;;;;;;;;;;;;;;10.53;76.40;100422.41;5061953;28;19916;-57
2023/03/29 00:30:46;;;;;;;;;;;;;;;10.52;76.56;100422.44;5050097;28;19994;-57
2023/03/29 00:33:11;;;;;;;;;;;;;;;10.49;76.72;100425.19;5056298;28;20019;-57
2023/03/29 00:35:37;;;;;;;;;;;;;;;10.46;76.20;100418.16;5069798;28;19948;-57
2023/03/29 00:38:05;;;;;;;;;;;;;;;10.44;76.85;100401.34;5058066;28;19951;-58
2023/03/29 00:40:30;;;;;;;;;;;;;;;10.46;76.66;100402.19;5049801;28;19943;-58
2023/03/29 00:42:56;;;;;;;;;;;;;;;10.45;77.04;100397.81;5049731;28;19936;-58
2023/03/29 00:45:25;;;;;;;;;;;;;;;10.42;76.57;100405.88;5049533;28;19974;-58
2023/03/29 00:47:55;;;;;;;;;;;;;;;10.45;76.18;100410.22;5051254;28;20025;-58
2023/03/29 00:50:29;;;;;;;;;;;;;;;10.42;75.90;100421.81;5062432;28;19959;-59
2023/03/29 00:53:11;;;;;;;;;;;;;;;10.41;77.30;100409.41;5054882;28;20338;-59
2023/03/29 00:55:42;;;;;;;;;;;;;;;10.43;77.17;100389.00;5049903;28;19956;-58
2023/03/29 00:58:08;;;;;;;;;;;;;;;10.50;77.62;100392.34;5068474;28;19948;-58
2023/03/29 01:00:36;;;;;;;;;;;;;;;10.48;76.11;100396.84;5066995;28;19935;-58
2023/03/29 01:03:05;;;;;;;;;;;;;;;10.41;76.54;100385.50;5051169;28;19949;-59
2023/03/29 01:05:37;;;;;;;;;;;;;;;10.45;75.99;100395.16;5067546;28;20002;-58
2023/03/29 01:08:05;;;;;;;;;;;;;;;10.47;75.86;100388.00;5055368;28;19939;-58
2023/03/29 01:10:55;;;;;;;;;;;;;;;10.46;76.97;100383.59;5048714;28;19928;-58
2023/03/29 01:13:34;;;;;;;;;;;;;;;10.45;76.38;100386.28;5066683;28;20365;-58
2023/03/29 01:16:00;;;;;;;;;;;;;;;10.48;75.63;100397.72;5065201;28;20344;-58
2023/03/29 01:18:26;;;;;;;;;;;;;;;10.49;76.14;100398.59;5051831;28;20014;-58
2023/03/29 01:21:09;;;;;;;;;;;;;;;10.47;76.67;100395.97;5068236;28;20384;-58
2023/03/29 01:23:49;;;;;;;;;;;;;;;10.45;76.21;100388.94;5051826;28;19913;-58
2023/03/29 01:26:15;;;;;;;;;;;;;;;10.43;75.97;100393.41;5049254;28;20010;-59
2023/03/29 01:28:48;;;;;;;;;;;;;;;10.35;75.86;100375.03;5051720;28;20023;-58
2023/03/29 01:31:18;;;;;;;;;;;;;;;10.37;76.27;100367.00;5049409;28;19944;-58
2023/03/29 01:33:48;;;;;;;;;;;;;;;10.37;76.41;100351.94;5051479;28;19943;-58
2023/03/29 01:36:17;;;;;;;;;;;;;;;10.39;76.68;100360.72;5049267;28;19998;-58
2023/03/29 01:39:12;;;;;;;;;;;;;;;10.31;77.36;100352.06;5049102;28;20423;-58
2023/03/29 01:41:45;;;;;;;;;;;;;;;10.31;76.73;100340.59;5039589;28;20728;-58
2023/03/29 01:44:29;;;;;;;;;;;;;;;10.16;76.32;100333.88;5052840;28;20022;-58
2023/03/29 01:47:01;;;;;;;;;;;;;;;10.07;74.49;100315.47;5055342;28;19956;-58
2023/03/29 01:49:31;;;;;;;;;;;;;;;10.14;74.66;100311.78;5058881;28;19958;-58
2023/03/29 01:52:06;;;;;;;;;;;;;;;10.19;73.29;100304.56;5064669;28;19956;-59
2023/03/29 01:54:35;;;;;;;;;;;;;;;10.13;73.09;100299.38;5065406;28;19932;-58
2023/03/29 01:57:03;;;;;;;;;;;;;;;10.21;70.59;100286.75;5072602;28;19912;-59
2023/03/29 01:59:31;;;;;;;;;;;;;;;10.31;70.50;100282.94;5054977;28;19948;-58
2023/03/29 02:01:58;;;;;;;;;;;;;;;10.37;68.63;100282.78;5066302;28;20341;-58
2023/03/29 02:04:35;;;;;;;;;;;;;;;10.52;69.50;100290.34;5072226;28;20456;-58
2023/03/29 02:07:02;;;;;;;;;;;;;;;10.53;67.09;100284.09;5066516;28;19931;-59
2023/03/29 02:09:28;;;;;;;;;;;;;;;10.61;64.69;100282.09;5062812;28;19999;-58
2023/03/29 02:11:56;;;;;;;;;;;;;;;10.79;64.59;100293.13;5054527;28;20021;-58
2023/03/29 02:14:23;;;;;;;;;;;;;;;10.89;65.78;100291.97;5068366;28;19938;-58
2023/03/29 02:16:48;;;;;;;;;;;;;;;10.97;65.33;100289.94;5060226;28;19970;-59
2023/03/29 02:19:16;;;;;;;;;;;;;;;11.01;64.68;100280.94;5056646;28;20009;-59
2023/03/29 02:21:50;;;;;;;;;;;;;;;11.04;63.04;100275.50;5069952;28;19927;-58
2023/03/29 02:24:17;;;;;;;;;;;;;;;11.13;62.71;100265.47;5052043;28;19927;-58
2023/03/29 02:26:43;;;;;;;;;;;;;;;11.13;63.00;100260.16;5066971;28;19931;-59
2023/03/29 02:29:08;;;;;;;;;;;;;;;11.14;62.61;100256.56;5071120;28;19931;-59
2023/03/29 02:31:39;;;;;;;;;;;;;;;11.18;62.16;100252.00;5072302;28;19948;-58
2023/03/29 02:34:23;;;;;;;;;;;;;;;11.25;61.42;100264.22;5057736;28;20034;-58
2023/03/29 02:36:57;;;;;;;;;;;;;;;11.27;62.23;100267.69;5051949;28;19942;-58
2023/03/29 02:39:24;;;;;;;;;;;;;;;11.31;61.91;100258.69;5054394;28;19938;-59
2023/03/29 02:41:50;;;;;;;;;;;;;;;11.36;61.99;100259.41;5051980;28;19948;-58
2023/03/29 02:44:26;;;;;;;;;;;;;;;11.37;62.19;100258.47;5051817;28;19987;-58
2023/03/29 02:46:54;;;;;;;;;;;;;;;11.41;61.75;100253.03;5070232;28;19935;-58
2023/03/29 02:49:20;;;;;;;;;;;;;;;11.45;60.88;100261.81;5066149;28;19922;-59
2023/03/29 02:51:47;;;;;;;;;;;;;;;11.47;61.40;100260.81;5051314;28;19938;-59
2023/03/29 02:54:18;;;;;;;;;;;;;;;11.44;61.08;100258.25;5053018;28;20325;-59
2023/03/29 02:56:48;;;;;;;;;;;;;;;11.50;62.84;100267.81;5071345;28;19935;-58
2023/03/29 02:59:15;;;;;;;;;;;;;;;11.48;63.71;100261.69;5067864;28;19953;-58
2023/03/29 03:01:41;;;;;;;;;;;;;;;11.45;65.10;100261.81;5071770;28;20737;-59
2023/03/29 03:04:07;;;;;;;;;;;;;;;11.40;65.91;100269.91;5070650;28;19927;-59
2023/03/29 03:06:32;;;;;;;;;;;;;;;11.38;66.32;100270.91;5053732;28;19981;-58
2023/03/29 03:08:57;;;;;;;;;;;;;;;11.36;67.05;100276.28;5050979;28;19913;-58
2023/03/29 03:11:23;;;;;;;;;;;;;;;11.33;67.08;100271.06;5053427;28;19939;-58
2023/03/29 03:13:48;;;;;;;;;;;;;;;11.30;67.11;100273.78;5060700;28;19917;-59
2023/03/29 03:16:13;;;;;;;;;;;;;;;11.29;68.58;100271.16;5070058;28;19931;-58
2023/03/29 03:18:38;;;;;;;;;;;;;;;11.26;68.38;100266.84;5052952;28;20575;-59
2023/03/29 03:21:04;;;;;;;;;;;;;;;11.26;69.01;100271.28;5053522;28;19947;-58
2023/03/29 03:23:29;;;;;;;;;;;;;;;11.22;68.06;100267.84;5051017;28;20028;-59
2023/03/29 03:25:54;;;;;;;;;;;;;;;11.22;69.54;100269.66;5053669;28;19967;-58
2023/03/29 03:28:20;;;;;;;;;;;;;;;11.21;69.08;100273.22;5050852;28;19932;-58
2023/03/29 03:30:46;;;;;;;;;;;;;;;11.16;69.84;100277.81;5050852;28;20436;-58
2023/03/29 03:33:11;;;;;;;;;;;;;;;11.16;70.86;100283.13;5050793;28;20003;-59
2023/03/29 03:35:37;;;;;;;;;;;;;;;11.11;71.41;100271.75;5053254;28;20056;-58
2023/03/29 03:38:04;;;;;;;;;;;;;;;11.09;72.67;100269.13;5050504;28;20058;-59
2023/03/29 03:40:31;;;;;;;;;;;;;;;11.10;72.88;100270.91;5053072;28;19924;-58
2023/03/29 03:42:56;;;;;;;;;;;;;;;11.05;74.37;100272.81;5050543;28;19927;-59
2023/03/29 03:45:21;;;;;;;;;;;;;;;11.03;74.47;100273.78;5050487;28;20443;-59
2023/03/29 03:47:46;;;;;;;;;;;;;;;10.99;75.58;100272.13;5050667;28;19927;-58
2023/03/29 03:50:12;;;;;;;;;;;;;;;10.96;76.50;100278.41;5052478;28;19925;-59
2023/03/29 03:52:37;;;;;;;;;;;;;;;10.88;76.03;100268.91;5056648;28;20015;-59
2023/03/29 03:55:03;;;;;;;;;;;;;;;10.87;75.17;100267.19;5066343;28;20402;-59
2023/03/29 03:57:28;;;;;;;;;;;;;;;10.85;74.42;100272.53;5070402;28;19931;-59
2023/03/29 03:59:55;;;;;;;;;;;;;;;10.94;72.67;100279.38;5070261;28;20410;-59
2023/03/29 04:02:20;;;;;;;;;;;;;;;11.01;72.15;100278.25;5066547;28;19920;-59
2023/03/29 04:04:46;;;;;;;;;;;;;;;11.04;72.49;100286.16;5069487;28;20334;-59
2023/03/29 04:07:13;;;;;;;;;;;;;;;11.05;72.94;100279.94;5067890;28;19940;-59
2023/03/29 04:09:38;;;;;;;;;;;;;;;11.06;73.33;100281.66;5069475;28;19942;-59
2023/03/29 04:12:04;;;;;;;;;;;;;;;11.06;73.68;100284.31;5069190;28;19930;-59
2023/03/29 04:14:30;;;;;;;;;;;;;;;11.06;73.64;100284.31;5059147;28;20430;-59
2023/03/29 04:16:55;;;;;;;;;;;;;;;11.06;73.49;100285.19;5068737;28;19940;-58
2023/03/29 04:19:21;;;;;;;;;;;;;;;11.07;74.48;100286.09;5067409;28;20449;-59
2023/03/29 04:21:48;;;;;;;;;;;;;;;11.08;74.31;100287.81;5069357;28;19935;-59
2023/03/29 04:24:13;;;;;;;;;;;;;;;11.08;73.47;100290.47;5068277;28;19998;-59
2023/03/29 04:26:39;;;;;;;;;;;;;;;11.07;74.23;100291.41;5051854;28;20022;-59
2023/03/29 04:29:04;;;;;;;;;;;;;;;11.04;73.58;100292.34;5050020;28;19934;-58
2023/03/29 04:31:30;;;;;;;;;;;;;;;11.05;73.68;100290.56;5057055;28;20380;-59
2023/03/29 04:33:56;;;;;;;;;;;;;;;11.04;73.68;100288.81;5068241;28;20407;-59
2023/03/29 04:36:21;;;;;;;;;;;;;;;11.07;72.61;100291.41;5065278;28;19920;-58
2023/03/29 04:38:47;;;;;;;;;;;;;;;11.08;73.11;100299.34;5066032;28;20011;-59
2023/03/29 04:41:14;;;;;;;;;;;;;;;11.11;72.68;100293.03;5068813;28;19937;-58
2023/03/29 04:43:40;;;;;;;;;;;;;;;11.09;74.69;100294.88;5064034;28;19941;-59
2023/03/29 04:46:06;;;;;;;;;;;;;;;11.01;75.34;100300.44;5049384;28;19940;-59
2023/03/29 04:48:32;;;;;;;;;;;;;;;10.96;75.83;100298.81;5049647;28;20042;-59
2023/03/29 04:50:58;;;;;;;;;;;;;;;11.00;75.87;100296.03;5068109;28;19932;-59
2023/03/29 04:53:23;;;;;;;;;;;;;;;11.02;75.81;100293.34;5063213;28;19950;-59
2023/03/29 04:55:49;;;;;;;;;;;;;;;11.00;76.40;100287.19;5068704;28;20338;-59
2023/03/29 04:58:14;;;;;;;;;;;;;;;11.00;76.07;100284.53;5062750;28;19962;-59
2023/03/29 05:00:41;;;;;;;;;;;;;;;11.00;75.18;100284.53;5065808;28;19936;-59
2023/03/29 05:03:10;;;;;;;;;;;;;;;11.02;75.50;100280.03;5068750;28;19921;-59
2023/03/29 05:05:35;;;;;;;;;;;;;;;10.99;72.88;100278.31;5056126;28;19969;-59
2023/03/29 05:08:00;;;;;;;;;;;;;;;11.06;72.18;100289.66;5051022;28;19913;-59
2023/03/29 05:10:26;;;;;;;;;;;;;;;11.04;69.89;100283.50;5064735;28;19947;-59
2023/03/29 05:12:52;;;;;;;;;;;;;;;11.09;70.60;100282.44;5068678;28;19936;-58
2023/03/29 05:15:18;;;;;;;;;;;;;;;11.14;70.28;100277.84;5069083;28;19989;-58
2023/03/29 05:17:43;;;;;;;;;;;;;;;11.17;69.01;100276.91;5071921;28;19993;-59
2023/03/29 05:20:10;;;;;;;;;;;;;;;11.25;68.22;100280.19;5061596;28;19954;-58
2023/03/29 05:22:35;;;;;;;;;;;;;;;11.34;67.89;100290.53;5052565;28;20408;-59
2023/03/29 05:25:00;;;;;;;;;;;;;;;11.35;68.16;100295.81;5053448;28;19974;-59
2023/03/29 05:27:26;;;;;;;;;;;;;;;11.36;68.07;100289.59;5063030;28;19968;-58
2023/03/29 05:29:51;;;;;;;;;;;;;;;11.36;67.57;100283.38;5051967;28;19974;-59
2023/03/29 05:32:17;;;;;;;;;;;;;;;11.42;68.23;100277.84;5066205;28;19920;-58
2023/03/29 05:34:42;;;;;;;;;;;;;;;11.45;67.86;100275.97;5072981;28;19920;-58
2023/03/29 05:37:07;;;;;;;;;;;;;;;11.46;67.73;100277.72;5064940;28;20402;-59
2023/03/29 05:39:33;;;;;;;;;;;;;;;11.51;67.01;100281.13;5068149;28;19999;-58
2023/03/29 05:41:58;;;;;;;;;;;;;;;11.54;66.89;100283.69;5072542;28;20386;-58
2023/03/29 05:44:24;;;;;;;;;;;;;;;11.54;67.75;100286.34;5069038;28;19965;-58
2023/03/29 05:46:49;;;;;;;;;;;;;;;11.58;67.59;100285.31;5069080;28;19958;-58
2023/03/29 05:49:15;;;;;;;;;;;;;;;11.61;66.83;100284.34;5067082;28;19959;-59
2023/03/29 05:51:44;;;;;;;;;;;;;;;11.62;67.77;100286.09;5053978;28;19980;-58
2023/03/29 05:54:10;;;;;;;;;;;;;;;11.64;66.73;100285.16;5065187;28;19931;-59
2023/03/29 05:56:38;;;;;;;;;;;;;;;11.69;66.07;100293.00;5069925;28;19972;-58
2023/03/29 05:59:03;;;;;;;;;;;;;;;11.73;66.42;100290.19;5051674;28;20080;-59
2023/03/29 06:01:29;;;;;;;;;;;;;;;11.79;67.24;100291.78;5057375;28;20132;-58
2023/03/29 06:03:56;;;;;;;;;;;;;;;11.82;65.95;100297.88;5070319;28;19934;-58
2023/03/29 06:06:21;;;;;;;;;;;;;;;11.85;66.23;100294.22;5071916;28;19909;-59
2023/03/29 06:08:46;;;;;;;;;;;;;;;11.89;64.89;100290.56;5068856;28;19962;-59
2023/03/29 06:11:12;;;;;;;;;;;;;;;11.95;64.66;100285.00;5052447;28;19933;-59
2023/03/29 06:13:37;;;;;;;;;;;;;;;12.03;64.35;100284.72;5052200;28;20049;-59
2023/03/29 06:16:07;;;;;;;;;;;;;;;12.06;64.21;100279.31;5054953;28;19931;-59
2023/03/29 06:18:33;;;;;;;;;;;;;;;12.12;65.35;100285.31;5070284;28;19931;-59
2023/03/29 06:20:58;;;;;;;;;;;;;;;12.20;65.44;100285.03;5072209;28;20087;-59
2023/03/29 06:23:23;;;;;;;;;;;;;;;12.30;64.92;100278.44;5071357;28;19917;-59
2023/03/29 06:25:52;;;;;;;;;;;;;;;12.40;65.58;100288.75;5069390;28;19974;-59
2023/03/29 06:28:18;;;;;;;;;;;;;;;12.48;65.57;100288.47;5071731;28;19923;-59
2023/03/29 06:30:44;;;;;;;;;;;;;;;12.54;64.42;100286.44;5071753;28;19948;-59
2023/03/29 06:33:10;;;;;;;;;;;;;;;12.59;64.79;100273.81;5065462;28;19943;-59
2023/03/29 06:35:36;;;;;;;;;;;;;;;12.64;64.22;100282.53;5052273;28;19917;-60
2023/03/29 06:38:02;;;;;;;;;;;;;;;12.70;64.41;100298.28;5051918;28;19947;-59
2023/03/29 06:40:28;;;;;;;;;;;;;;;12.73;63.40;100297.31;5054129;28;19920;-59
2023/03/29 06:42:56;;;;;;;;;;;;;;;12.73;63.04;100298.22;5051493;28;19931;-59
2023/03/29 06:45:22;;;;;;;;;;;;;;;12.78;62.80;100295.38;5054190;28;19934;-59
2023/03/29 06:47:47;;;;;;;;;;;;;;;12.81;63.25;100301.47;5051695;28;20302;-60
2023/03/29 06:50:13;;;;;;;;;;;;;;;12.84;63.58;100298.66;5064218;28;19955;-60
2023/03/29 06:52:38;;;;;;;;;;;;;;;12.90;63.57;100306.44;5071360;28;19927;-59
2023/03/29 06:55:06;;;;;;;;;;;;;;;12.93;63.29;100300.13;5040548;28;19938;-59
2023/03/29 06:57:32;;;;;;;;;;;;;;;13.01;62.15;100304.25;5050472;28;19947;-59
2023/03/29 06:59:58;;;;;;;;;;;;;;;13.06;61.24;100310.31;5050354;28;20354;-59
2023/03/29 07:02:23;;;;;;;;;;;;;;;13.08;59.08;100316.47;5050538;28;19935;-59
2023/03/29 07:04:48;;;;;;;;;;;;;;;13.21;58.89;100317.72;5059395;28;20359;-59
2023/03/29 07:07:18;;;;;;;;;;;;;;;13.36;59.62;100304.72;5069800;28;19954;-59
2023/03/29 07:09:45;;;;;;;;;;;;;;;13.49;59.62;100305.97;5066950;28;19927;-60
2023/03/29 07:12:10;;;;;;;;;;;;;;;13.45;57.53;100321.25;5071224;28;19943;-59
2023/03/29 07:14:35;;;;;;;;;;;;;;;13.51;57.81;100306.81;5069240;28;20372;-59
2023/03/29 07:17:01;;;;;;;;;;;;;;;13.67;58.32;100307.91;5051054;28;19931;-59
2023/03/29 07:19:28;;;;;;;;;;;;;;;13.74;58.46;100309.41;5057351;28;20384;-59
2023/03/29 07:21:54;;;;;;;;;;;;;;;13.76;57.17;100302.19;5058016;28;19965;-59
2023/03/29 07:24:20;;;;;;;;;;;;;;;13.77;55.28;100314.63;5050907;28;20384;-59
2023/03/29 07:26:45;;;;;;;;;;;;;;;13.81;55.36;100313.56;5053244;28;19921;-59
2023/03/29 07:29:12;;;;;;;;;;;;;;;13.90;54.74;100308.72;5070657;28;19927;-59
2023/03/29 07:31:39;;;;;;;;;;;;;;;13.94;54.79;100314.78;5067365;28;19921;-59
2023/03/29 07:34:05;;;;;;;;;;;;;;;14.00;54.04;100309.22;5071132;28;20519;-59
2023/03/29 07:36:33;;;;;;;;;;;;;;;14.16;54.58;100315.66;5063093;28;20003;-59
2023/03/29 07:39:00;;;;;;;;;;;;;;;14.22;54.32;100310.03;5050022;28;20329;-59
2023/03/29 07:41:25;;;;;;;;;;;;;;;14.27;53.36;100318.75;5052034;28;19920;-59
2023/03/29 07:43:51;;;;;;;;;;;;;;;14.26;53.91;100333.97;5052133;28;20005;-59
2023/03/29 07:46:16;;;;;;;;;;;;;;;14.29;53.93;100335.63;5050581;28;20013;-59
2023/03/29 07:48:41;;;;;;;;;;;;;;;14.31;54.78;100341.78;5060255;28;19924;-59
2023/03/29 07:51:07;;;;;;;;;;;;;;;14.34;55.56;100328.28;5070353;28;19966;-59
2023/03/29 07:53:32;;;;;;;;;;;;;;;14.35;55.83;100327.31;5067347;28;19951;-59
2023/03/29 07:55:57;;;;;;;;;;;;;;;14.40;55.40;100330.69;5069695;28;19912;-59
2023/03/29 07:58:23;;;;;;;;;;;;;;;14.41;54.79;100321.72;5070482;28;19921;-59
2023/03/29 08:00:49;;;;;;;;;;;;;;;14.52;52.08;100319.44;5067629;28;19931;-59
2023/03/29 08:03:15;;;;;;;;;;;;;;;14.56;51.82;100326.41;5069850;28;19917;-60
2023/03/29 08:05:41;;;;;;;;;;;;;;;14.67;52.02;100321.44;5066589;28;19951;-59
2023/03/29 08:08:06;;;;;;;;;;;;;;;14.73;50.22;100323.84;5070196;28;19925;-59
2023/03/29 08:10:33;;;;;;;;;;;;;;;14.82;50.08;100310.06;5070278;28;20422;-59
2023/03/29 08:12:59;;;;;;;;;;;;;;;15.00;52.35;100322.63;5070088;28;19924;-59
2023/03/29 08:15:25;;;;;;;;;;;;;;;15.09;51.21;100315.97;5064498;28;19926;-59
2023/03/29 08:17:50;;;;;;;;;;;;;;;15.10;49.82;100307.88;5050244;28;20300;-59
2023/03/29 08:20:15;;;;;;;;;;;;;;;15.33;51.71;100309.47;5062928;28;20342;-59
2023/03/29 08:22:41;;;;;;;;;;;;;;;15.42;48.65;100319.78;5069698;28;19929;-60
2023/03/29 08:25:07;;;;;;;;;;;;;;;15.48;48.04;100317.69;5060504;28;20344;-60
2023/03/29 08:27:33;;;;;;;;;;;;;;;15.56;47.87;100304.78;5050025;28;19927;-59
2023/03/29 08:29:58;;;;;;;;;;;;;;;15.78;49.67;100302.78;5052477;28;20752;-60
2023/03/29 08:32:23;;;;;;;;;;;;;;;15.89;49.04;100309.44;5049790;28;19924;-59
2023/03/29 08:34:48;;;;;;;;;;;;;;;15.93;47.28;100308.34;5055528;28;19946;-59
2023/03/29 08:37:14;;;;;;;;;;;;;;;15.95;48.16;100298.41;5069837;28;19938;-60
2023/03/29 08:39:40;;;;;;;;;;;;;;;15.95;47.60;100299.25;5061031;28;19920;-59
2023/03/29 08:42:25;;;;;;;;;;;;;;;15.93;47.73;100313.72;5049711;28;19958;-59
2023/03/29 08:45:08;;;;;;;;;;;;;;;15.96;47.54;100301.03;5049730;28;19927;-59
2023/03/29 08:47:52;;;;;;;;;;;;;;;16.16;48.11;100291.97;5048913;28;19983;-59
2023/03/29 08:50:19;;;;;;;;;;;;;;;16.27;47.24;100292.28;5061934;28;19982;-60
2023/03/29 08:52:50;;;;;;;;;;;;;;;16.67;47.61;100290.13;5072760;28;19944;-59
2023/03/29 08:55:51;;;;;;;;;;;;;;;17.06;46.54;100288.00;5058667;28;19938;-60
2023/03/29 08:58:23;;;;;;;;;;;;;;;17.66;43.91;100278.34;4990576;28;19917;-59
2023/03/29 09:00:58;;;;;;;;;;;;;;;17.87;42.55;100273.56;5049106;28;19930;-59
2023/03/29 09:03:24;;;;;;;;;;;;;;;17.90;42.76;100268.88;5054032;28;19963;-59
2023/03/29 09:06:03;;;;;;;;;;;;;;;18.13;42.56;100263.00;5068607;28;19917;-59
2023/03/29 09:08:29;;;;;;;;;;;;;;;18.69;43.08;100266.81;5073610;28;19956;-60
2023/03/29 09:11:17;;;;;;;;;;;;;;;18.85;41.51;100272.97;5072206;28;19935;-60
2023/03/29 09:13:46;;;;;;;;;;;;;;;18.54;41.29;100268.63;5073485;28;19912;-59
2023/03/29 09:16:19;;;;;;;;;;;;;;;18.55;41.61;100269.50;5058451;28;19954;-60
2023/03/29 09:18:57;;;;;;;;;;;;;;;18.44;42.46;100271.94;5054161;28;20373;-59
2023/03/29 09:21:30;;;;;;;;;;;;;;;18.32;43.12;100266.31;5065337;28;20018;-60
2023/03/29 09:24:04;;;;;;;;;;;;;;;18.01;42.97;100261.03;5053622;28;19917;-66
2023/03/29 09:26:35;;;;;;;;;;;;;;;18.12;43.99;100266.63;5053573;28;19954;-60
2023/03/29 09:29:12;;;;;;;;;;;;;;;18.14;43.43;100275.50;5053455;28;19928;-59
2023/03/29 09:31:40;;;;;;;;;;;;;;;17.93;43.04;100275.88;5049449;28;20314;-59
2023/03/29 09:34:08;;;;;;;;;;;;;;;17.63;44.71;100275.84;5052102;28;20015;-59
2023/03/29 09:37:12;;;;;;;;;;;;;;;17.36;45.23;100272.00;5054758;28;19931;-59
2023/03/29 09:39:38;;;;;;;;;;;;;;;17.50;45.52;100280.19;4989808;28;19950;-59
2023/03/29 09:42:07;;;;;;;;;;;;;;;17.41;45.36;100269.94;4997141;28;20045;-59
2023/03/29 09:44:36;;;;;;;;;;;;;;;17.55;46.41;100256.59;5029810;28;20679;-59
2023/03/29 09:47:10;;;;;;;;;;;;;;;17.68;46.22;100270.19;5052136;28;19913;-59
2023/03/29 09:49:38;;;;;;;;;;;;;;;17.92;46.18;100258.88;5062288;28;19920;-60
2023/03/29 09:52:07;;;;;;;;;;;;;;;18.07;46.07;100263.34;5073051;28;19927;-59
2023/03/29 09:54:32;;;;;;;;;;;;;;;18.15;45.46;100265.59;5063691;28;19921;-60
2023/03/29 09:56:58;;;;;;;;;;;;;;;18.19;45.44;100256.38;5072575;28;19922;-59
2023/03/29 09:59:23;;;;;;;;;;;;;;;18.47;45.06;100255.63;5070650;28;20711;-59
2023/03/29 10:01:49;;;;;;;;;;;;;;;18.52;44.33;100258.91;5064953;28;20333;-60
2023/03/29 10:04:15;;;;;;;;;;;;;;;18.51;44.18;100254.47;5072533;28;20043;-59
2023/03/29 10:06:49;;;;;;;;;;;;;;;18.86;44.38;100255.84;5069886;28;19976;-60
2023/03/29 10:09:21;;;;;;;;;;;;;;;18.99;44.35;100246.91;5069739;28;20351;-59
2023/03/29 10:11:50;;;;;;;;;;;;;;;19.00;42.94;100239.66;5072516;28;20592;-59
2023/03/29 10:14:17;;;;;;;;;;;;;;;19.06;43.31;100244.69;5070591;28;19930;-59
2023/03/29 10:16:44;;;;;;;;;;;;;;;19.03;43.72;100234.06;5054481;28;19919;-59
2023/03/29 10:19:16;;;;;;;;;;;;;;;18.94;41.38;100230.16;5056263;28;19931;-59
2023/03/29 10:21:41;;;;;;;;;;;;;;;19.30;43.82;100226.94;5072322;28;20034;-60
2023/03/29 10:24:07;;;;;;;;;;;;;;;19.78;43.60;100228.25;5067750;28;20063;-60
2023/03/29 10:26:35;;;;;;;;;;;;;;;20.12;41.15;100222.28;5052439;28;19993;-59
2023/03/29 10:29:02;;;;;;;;;;;;;;;19.98;41.89;100228.66;5070082;28;20388;-60
2023/03/29 10:31:31;;;;;;;;;;;;;;;20.19;43.53;100223.66;5066260;28;19927;-59
2023/03/29 10:34:00;;;;;;;;;;;;;;;19.98;43.00;100228.66;5070141;28;19920;-59
2023/03/29 10:36:25;;;;;;;;;;;;;;;19.82;43.16;100219.84;5061998;28;19921;-60
2023/03/29 10:38:52;;;;;;;;;;;;;;;19.79;42.72;100222.75;5050835;28;20441;-60
2023/03/29 10:41:20;;;;;;;;;;;;;;;19.97;43.18;100218.81;5067967;28;19924;-59
2023/03/29 10:43:49;;;;;;;;;;;;;;;19.67;42.64;100209.22;5068688;28;19969;-59
2023/03/29 10:46:22;;;;;;;;;;;;;;;19.53;43.14;100212.81;5070797;28;19992;-59
2023/03/29 10:48:49;;;;;;;;;;;;;;;19.38;42.07;100219.22;5070971;28;19999;-59
2023/03/29 10:51:15;;;;;;;;;;;;;;;19.26;42.99;100206.50;5065953;28;20744;-60
2023/03/29 10:53:41;;;;;;;;;;;;;;;19.34;42.33;100204.22;5051732;28;20315;-60
2023/03/29 10:56:25;;;;;;;;;;;;;;;19.56;41.52;100201.81;5051402;28;19925;-60
2023/03/29 10:58:58;;;;;;;;;;;;;;;19.99;41.99;100208.78;5070134;28;19954;-60
2023/03/29 11:01:44;;;;;;;;;;;;;;;20.05;41.22;100205.66;5071635;28;19912;-59
2023/03/29 11:04:19;;;;;;;;;;;;;;;19.78;40.09;100203.97;5021115;28;19916;-60
2023/03/29 11:07:00;;;;;;;;;;;;;;;19.55;40.64;100211.75;5062984;28;19963;-60
2023/03/29 11:09:36;;;;;;;;;;;;;;;19.51;42.46;100215.63;5069870;28;20610;-60
2023/03/29 11:12:04;;;;;;;;;;;;;;;19.30;42.33;100217.03;5059334;28;20406;-59
2023/03/29 11:14:29;;;;;;;;;;;;;;;19.11;42.80;100216.44;5050513;28;19924;-59
2023/03/29 11:17:05;;;;;;;;;;;;;;;18.91;41.42;100218.69;5053716;28;20307;-60
2023/03/29 11:19:49;;;;;;;;;;;;;;;18.75;42.09;100217.91;5070185;28;19958;-59
2023/03/29 11:22:17;;;;;;;;;;;;;;;18.68;42.14;100217.41;5057576;28;19921;-60
2023/03/29 11:24:45;;;;;;;;;;;;;;;18.59;42.01;100217.13;5070933;28;19970;-60
2023/03/29 11:27:11;;;;;;;;;;;;;;;18.59;43.44;100211.75;5067540;28;20037;-60
2023/03/29 11:29:39;;;;;;;;;;;;;;;18.50;43.41;100218.56;5069097;28;19952;-59
2023/03/29 11:32:10;;;;;;;;;;;;;;;18.55;44.97;100211.06;5051557;28;19936;-60
2023/03/29 11:34:38;;;;;;;;;;;;;;;18.71;42.69;100216.38;5050445;28;19923;-60
2023/03/29 11:37:07;;;;;;;;;;;;;;;18.74;42.86;100206.28;5061976;28;19935;-60
2023/03/29 11:39:42;;;;;;;;;;;;;;;18.78;42.65;100209.66;5064284;28;19924;-60
2023/03/29 11:42:13;;;;;;;;;;;;;;;19.10;41.66;100203.06;5050739;28;19917;-60
2023/03/29 11:44:40;;;;;;;;;;;;;;;19.46;43.02;100211.50;5050640;28;19924;-60
2023/03/29 11:47:13;;;;;;;;;;;;;;;19.73;41.14;100209.69;5050748;28;19971;-60
2023/03/29 11:49:45;;;;;;;;;;;;;;;19.92;40.64;100214.72;5060552;28;19959;-60
2023/03/29 11:52:10;;;;;;;;;;;;;;;20.01;39.34;100214.06;5070657;28;20507;-60
2023/03/29 11:54:44;;;;;;;;;;;;;;;20.15;38.76;100212.19;5070480;28;20033;-60
2023/03/29 11:57:19;;;;;;;;;;;;;;;20.16;39.65;100203.13;5068468;28;19949;-60
2023/03/29 11:59:47;;;;;;;;;;;;;;;20.40;40.02;100203.25;5050560;28;19920;-59
2023/03/29 12:02:21;;;;;;;;;;;;;;;20.41;39.34;100203.13;5061910;28;19973;-59
2023/03/29 12:04:51;;;;;;;;;;;;;;;20.46;39.30;100205.53;5068663;28;19927;-60
2023/03/29 12:07:25;;;;;;;;;;;;;;;20.38;39.54;100202.47;5067892;28;19927;-60
2023/03/29 12:09:54;;;;;;;;;;;;;;;20.24;40.48;100200.75;5069461;28;19930;-60
2023/03/29 12:12:25;;;;;;;;;;;;;;;20.21;39.81;100205.50;5065807;28;19916;-60
2023/03/29 12:15:06;;;;;;;;;;;;;;;20.09;40.01;100209.88;5069372;28;20454;-59
2023/03/29 12:17:41;;;;;;;;;;;;;;;20.05;39.87;100202.94;5067555;28;19960;-60
2023/03/29 12:20:09;;;;;;;;;;;;;;;20.56;38.96;100196.66;5062120;28;19947;-60
2023/03/29 12:22:36;;;;;;;;;;;;;;;21.28;38.62;100185.13;5069546;28;19963;-60
2023/03/29 12:25:02;;;;;;;;;;;;;;;21.96;37.44;100190.78;5055296;28;19913;-60
2023/03/29 12:27:39;;;;;;;;;;;;;;;22.07;37.35;100183.56;5049294;28;20305;-60
2023/03/29 12:30:28;;;;;;;;;;;;;;;21.85;37.24;100196.16;5055398;28;19977;-60
2023/03/29 12:33:02;;;;;;;;;;;;;;;21.90;36.87;100193.97;5069136;28;20451;-60
2023/03/29 12:35:37;;;;;;;;;;;;;;;21.97;35.90;100190.69;5069229;28;19969;-60
2023/03/29 12:38:18;;;;;;;;;;;;;;;21.61;36.54;100182.63;5069362;28;19924;-60
2023/03/29 12:40:47;;;;;;;;;;;;;;;21.27;36.44;100186.09;5059374;28;19912;-60
2023/03/29 12:43:23;;;;;;;;;;;;;;;20.55;37.06;100192.25;5070161;28;19957;-60